createdAt,value
2023-05-16T00:01:48.712Z,30.77
2023-05-16T00:04:15.484Z,82.47
2023-05-16T00:06:42.214Z,25.23
2023-05-16T00:09:08.974Z,33.40
2023-05-16T00:11:36.305Z,180.23
2023-05-16T00:14:03.788Z,25.00
2023-05-16T00:16:30.893Z,91.25
2023-05-16T00:18:57.776Z,97.93
2023-05-16T00:21:24.927Z,35.90
2023-05-16T00:23:52.507Z,71.75
2023-05-16T00:26:19.419Z,30.60
2023-05-16T00:28:46.275Z,146.35
2023-05-16T00:31:12.844Z,55.65
2023-05-16T00:33:39.390Z,37.78
2023-05-16T00:36:06.110Z,69.30
2023-05-16T00:38:32.679Z,100.88
2023-05-16T00:40:59.628Z,67.63
2023-05-16T00:43:26.231Z,39.42
2023-05-16T00:45:52.776Z,102.15
2023-05-16T00:48:19.523Z,95.82
2023-05-16T00:50:46.591Z,41.97
2023-05-16T00:53:13.143Z,68.05
2023-05-16T00:55:39.775Z,37.80
2023-05-16T00:58:07.755Z,145.23
2023-05-16T01:00:34.280Z,47.63
2023-05-16T01:03:01.282Z,91.28
2023-05-16T01:05:28.612Z,41.22
2023-05-16T01:07:55.332Z,79.15
2023-05-16T01:10:21.904Z,45.53
2023-05-16T01:13:08.592Z,43.17
2023-05-16T01:16:04.539Z,36.42
2023-05-16T01:18:40.932Z,67.50
2023-05-16T01:21:13.490Z,56.17
2023-05-16T01:23:39.954Z,138.27
2023-05-16T01:26:13.373Z,40.55
2023-05-16T01:28:41.818Z,172.68
2023-05-16T01:31:08.555Z,36.80
2023-05-16T01:33:35.317Z,104.63
2023-05-16T01:36:10.904Z,140.23
2023-05-16T01:38:43.379Z,46.72
2023-05-16T01:41:25.858Z,37.10
2023-05-16T01:43:59.956Z,60.28
2023-05-16T01:46:31.680Z,209.07
2023-05-16T01:49:18.569Z,41.65
2023-05-16T01:51:50.830Z,44.45
2023-05-16T01:54:19.372Z,73.53
2023-05-16T01:56:54.363Z,43.90
2023-05-16T01:59:22.215Z,65.97
2023-05-16T02:01:48.886Z,29.23
2023-05-16T02:04:15.911Z,72.25
2023-05-16T02:06:42.769Z,36.42
2023-05-16T02:09:09.405Z,74.60
2023-05-16T02:11:39.582Z,46.63
2023-05-16T02:14:06.153Z,72.32
2023-05-16T02:16:33.917Z,47.45
2023-05-16T02:19:00.530Z,43.75
2023-05-16T02:21:27.090Z,87.00
2023-05-16T02:23:53.805Z,48.22
2023-05-16T02:26:20.803Z,69.72
2023-05-16T02:28:49.417Z,40.85
2023-05-16T02:31:32.487Z,38.97
2023-05-16T02:34:00.200Z,51.88
2023-05-16T02:36:27.475Z,44.97
2023-05-16T02:38:54.112Z,72.72
2023-05-16T02:41:22.973Z,47.97
2023-05-16T02:43:49.584Z,38.42
2023-05-16T02:46:27.271Z,53.22
2023-05-16T02:48:54.607Z,42.20
2023-05-16T02:51:22.680Z,83.18
2023-05-16T02:53:49.605Z,43.42
2023-05-16T02:56:16.711Z,62.08
2023-05-16T02:58:43.662Z,69.75
2023-05-16T03:01:10.647Z,55.97
2023-05-16T03:03:37.578Z,151.63
2023-05-16T03:06:04.350Z,45.75
2023-05-16T03:08:32.905Z,159.77
2023-05-16T03:10:59.460Z,36.75
2023-05-16T03:13:26.037Z,78.13
2023-05-16T03:15:52.949Z,54.70
2023-05-16T03:18:19.561Z,47.38
2023-05-16T03:20:46.164Z,49.58
2023-05-16T03:23:12.764Z,39.05
2023-05-16T03:25:39.386Z,62.88
2023-05-16T03:28:10.059Z,44.75
2023-05-16T03:30:36.611Z,66.97
2023-05-16T03:33:04.151Z,41.85
2023-05-16T03:35:34.817Z,40.65
2023-05-16T03:38:01.395Z,83.40
2023-05-16T03:40:28.050Z,50.67
2023-05-16T03:42:54.727Z,74.57
2023-05-16T03:45:21.331Z,71.88
2023-05-16T03:47:50.999Z,78.22
2023-05-16T03:50:17.700Z,67.90
2023-05-16T03:52:44.560Z,121.03
2023-05-16T03:55:11.377Z,67.65
2023-05-16T03:57:38.549Z,68.30
2023-05-16T04:00:08.146Z,64.03
2023-05-16T04:02:41.165Z,57.05
2023-05-16T04:05:09.197Z,67.43
2023-05-16T04:07:36.659Z,70.38
2023-05-16T04:10:04.389Z,57.45
2023-05-16T04:12:30.918Z,42.45
2023-05-16T04:14:57.495Z,64.43
2023-05-16T04:17:24.118Z,48.88
2023-05-16T04:19:50.620Z,52.47
2023-05-16T04:22:17.282Z,103.57
2023-05-16T04:24:43.801Z,39.78
2023-05-16T04:27:10.408Z,46.80
2023-05-16T04:29:36.990Z,51.65
2023-05-16T04:32:03.881Z,54.00
2023-05-16T04:34:30.791Z,73.35
2023-05-16T04:36:57.867Z,41.40
2023-05-16T04:39:24.475Z,125.60
2023-05-16T04:41:51.576Z,48.60
2023-05-16T04:44:18.347Z,101.97
2023-05-16T04:46:44.989Z,49.28
2023-05-16T04:49:11.606Z,107.43
2023-05-16T04:51:38.276Z,40.97
2023-05-16T04:54:04.842Z,55.78
2023-05-16T04:56:31.869Z,41.55
2023-05-16T04:58:58.448Z,40.25
2023-05-16T05:01:25.221Z,79.15
2023-05-16T05:03:52.189Z,59.88
2023-05-16T05:06:18.727Z,89.20
2023-05-16T05:08:45.639Z,41.20
2023-05-16T05:11:12.343Z,81.72
2023-05-16T05:13:38.889Z,41.25
2023-05-16T05:16:07.375Z,47.63
2023-05-16T05:18:34.080Z,41.72
2023-05-16T05:21:00.770Z,46.10
2023-05-16T05:23:27.335Z,88.90
2023-05-16T05:25:54.199Z,38.03
2023-05-16T05:28:20.767Z,44.97
2023-05-16T05:30:48.424Z,84.80
2023-05-16T05:33:18.588Z,46.00
2023-05-16T05:35:45.550Z,105.95
2023-05-16T05:38:12.139Z,52.60
2023-05-16T05:40:38.756Z,152.77
2023-05-16T05:43:06.478Z,44.53
2023-05-16T05:45:33.104Z,81.40
2023-05-16T05:47:59.642Z,45.70
2023-05-16T05:50:26.220Z,54.47
2023-05-16T05:52:52.862Z,43.22
2023-05-16T05:55:19.893Z,76.25
2023-05-16T05:57:46.423Z,55.88
2023-05-16T06:00:13.601Z,78.18
2023-05-16T06:02:41.879Z,61.42
2023-05-16T06:05:09.181Z,56.92
2023-05-16T06:07:35.741Z,75.03
2023-05-16T06:10:05.399Z,37.40
2023-05-16T06:12:32.085Z,61.17
2023-05-16T06:14:58.998Z,39.33
2023-05-16T06:17:25.656Z,47.17
2023-05-16T06:19:52.161Z,37.70
2023-05-16T06:22:18.688Z,46.25
2023-05-16T06:24:45.818Z,110.15
2023-05-16T06:27:12.355Z,38.50
2023-05-16T06:29:39.036Z,79.38
2023-05-16T06:32:06.100Z,26.00
2023-05-16T06:34:32.609Z,77.60
2023-05-16T06:36:59.760Z,33.58
2023-05-16T06:39:26.500Z,52.47
2023-05-16T06:41:56.192Z,32.67
2023-05-16T06:44:23.661Z,44.67
2023-05-16T06:46:50.420Z,38.75
2023-05-16T06:49:17.206Z,33.60
2023-05-16T06:51:44.019Z,89.30
2023-05-16T06:54:10.776Z,31.08
2023-05-16T06:56:37.594Z,62.33
2023-05-16T06:59:04.287Z,27.77
2023-05-16T07:01:31.017Z,56.28
2023-05-16T07:03:57.864Z,35.70
2023-05-16T07:06:24.565Z,46.47
2023-05-16T07:08:51.379Z,32.67
2023-05-16T07:11:18.635Z,40.63
2023-05-16T07:13:45.350Z,93.03
2023-05-16T07:16:12.122Z,39.80
2023-05-16T07:18:38.763Z,67.57
2023-05-16T07:21:05.820Z,31.38
2023-05-16T07:23:32.523Z,110.47
2023-05-16T07:25:59.562Z,29.63
2023-05-16T07:28:26.230Z,55.38
2023-05-16T07:30:52.817Z,38.13
2023-05-16T07:33:19.634Z,43.38
2023-05-16T07:35:46.393Z,48.85
2023-05-16T07:38:13.260Z,30.10
2023-05-16T07:40:40.003Z,58.25
2023-05-16T07:43:06.608Z,124.82
2023-05-16T07:45:33.334Z,44.50
2023-05-16T07:48:00.312Z,60.95
2023-05-16T07:50:27.356Z,44.95
2023-05-16T07:52:53.932Z,79.18
2023-05-16T07:55:22.088Z,66.50
2023-05-16T07:57:49.973Z,152.32
2023-05-16T08:00:17.743Z,61.38
2023-05-16T08:02:44.589Z,34.97
2023-05-16T08:05:11.343Z,64.40
2023-05-16T08:07:37.920Z,29.80
2023-05-16T08:10:04.956Z,111.78
2023-05-16T08:12:31.484Z,26.67
2023-05-16T08:14:58.161Z,58.38
2023-05-16T08:17:24.783Z,30.08
2023-05-16T08:19:51.624Z,120.47
2023-05-16T08:22:18.193Z,26.83
2023-05-16T08:24:44.864Z,48.10
2023-05-16T08:27:12.115Z,29.95
2023-05-16T08:29:38.822Z,22.27
2023-05-16T08:32:06.113Z,50.53
2023-05-16T08:34:33.005Z,20.65
2023-05-16T08:37:00.297Z,60.70
2023-05-16T08:39:26.880Z,29.42
2023-05-16T08:41:53.479Z,69.57
2023-05-16T08:44:21.931Z,28.63
2023-05-16T08:46:52.820Z,59.20
2023-05-16T08:49:20.093Z,27.35
2023-05-16T08:51:47.736Z,41.10
2023-05-16T08:54:15.855Z,28.25
2023-05-16T08:56:43.549Z,27.05
2023-05-16T08:59:11.535Z,28.88
2023-05-16T09:01:38.445Z,24.52
2023-05-16T09:04:08.202Z,37.03
2023-05-16T09:06:36.060Z,27.88
2023-05-16T09:09:04.577Z,40.90
2023-05-16T09:11:31.162Z,30.02
2023-05-16T09:13:57.788Z,32.35
2023-05-16T09:16:24.547Z,54.15
2023-05-16T09:18:59.896Z,24.33
2023-05-16T09:21:31.860Z,39.30
2023-05-16T09:24:08.729Z,33.90
2023-05-16T09:26:37.429Z,25.98
2023-05-16T09:29:14.357Z,36.80
2023-05-16T09:31:41.257Z,29.35
2023-05-16T09:34:09.159Z,23.83
2023-05-16T09:36:36.726Z,57.35
2023-05-16T09:39:03.478Z,28.38
2023-05-16T09:41:34.035Z,39.95
2023-05-16T09:44:04.167Z,27.90
2023-05-16T09:46:32.267Z,140.85
2023-05-16T09:48:58.905Z,25.45
2023-05-16T09:51:27.277Z,64.32
2023-05-16T09:53:54.578Z,53.50
2023-05-16T09:56:21.500Z,70.53
2023-05-16T09:58:48.592Z,30.00
2023-05-16T10:01:15.519Z,62.95
2023-05-16T10:03:43.070Z,20.08
2023-05-16T10:06:10.602Z,57.55
2023-05-16T10:08:37.510Z,27.83
2023-05-16T10:11:05.808Z,61.00
2023-05-16T10:13:36.569Z,31.33
2023-05-16T10:16:08.596Z,43.83
2023-05-16T10:18:36.033Z,28.50
2023-05-16T10:21:08.279Z,24.00
2023-05-16T10:23:38.308Z,77.80
2023-05-16T10:26:06.221Z,22.42
2023-05-16T10:28:32.947Z,49.35
2023-05-16T10:31:00.396Z,29.13
2023-05-16T10:33:27.064Z,197.77
2023-05-16T10:35:54.012Z,23.55
2023-05-16T10:38:21.402Z,45.83
2023-05-16T10:40:48.506Z,25.33
2023-05-16T10:43:24.524Z,32.80
2023-05-16T10:45:56.150Z,24.92
2023-05-16T10:48:36.564Z,152.65
2023-05-16T10:51:04.702Z,23.20
2023-05-16T10:53:33.877Z,66.40
2023-05-16T10:56:00.952Z,27.17
2023-05-16T10:58:33.264Z,145.98
2023-05-16T11:01:25.601Z,31.63
2023-05-16T11:04:01.548Z,24.98
2023-05-16T11:06:43.074Z,138.32
2023-05-16T11:11:52.061Z,35.78
2023-05-16T11:14:34.353Z,30.52
2023-05-16T11:17:07.679Z,20.25
2023-05-16T11:20:01.547Z,216.70
2023-05-16T11:22:33.109Z,736.08
2023-05-16T11:25:01.538Z,686.25
2023-05-16T11:27:39.512Z,759.90
2023-05-16T11:30:06.064Z,689.50
2023-05-16T11:32:37.490Z,688.83
2023-05-16T11:35:05.243Z,643.72
2023-05-16T11:37:31.932Z,732.03
2023-05-16T11:40:02.781Z,636.58
2023-05-16T11:42:35.335Z,768.22
2023-05-16T11:45:10.360Z,629.97
2023-05-16T11:47:38.495Z,687.42
2023-05-16T11:50:08.657Z,612.30
2023-05-16T11:52:35.538Z,625.78
2023-05-16T11:55:04.997Z,579.72
2023-05-16T11:57:31.746Z,613.70
2023-05-16T12:00:11.156Z,579.00
2023-05-16T12:02:38.041Z,637.08
2023-05-16T12:05:09.811Z,583.00
2023-05-16T12:07:40.728Z,595.00
2023-05-16T12:10:09.026Z,607.22
2023-05-16T12:12:36.541Z,600.55
2023-05-16T12:15:04.442Z,583.95
2023-05-16T12:17:31.161Z,621.72
2023-05-16T12:19:57.902Z,596.45
2023-05-16T12:22:25.998Z,781.15
2023-05-16T12:24:52.684Z,629.13
2023-05-16T12:27:23.504Z,650.10
2023-05-16T12:29:50.432Z,632.97
2023-05-16T12:32:20.598Z,660.45
2023-05-16T12:34:52.027Z,661.00
2023-05-16T12:39:48.331Z,653.55
2023-05-16T12:42:15.353Z,749.35
2023-05-16T12:44:45.460Z,651.33
2023-05-16T12:47:13.666Z,670.40
2023-05-16T12:49:47.057Z,620.05
2023-05-16T12:52:20.938Z,646.55
2023-05-16T12:54:49.146Z,615.85
2023-05-16T12:57:15.706Z,685.10
2023-05-16T12:59:42.352Z,614.10
2023-05-16T13:02:10.921Z,714.72
2023-05-16T13:04:37.587Z,619.60
2023-05-16T13:07:04.779Z,663.38
2023-05-16T13:09:32.988Z,623.00
2023-05-16T13:12:00.244Z,640.08
2023-05-16T13:14:27.135Z,613.40
2023-05-16T13:16:53.752Z,599.78
2023-05-16T13:19:22.314Z,608.58
2023-05-16T13:21:48.982Z,612.88
2023-05-16T13:24:15.793Z,617.47
2023-05-16T13:26:42.307Z,604.28
2023-05-16T13:29:11.212Z,708.33
2023-05-16T13:31:37.898Z,601.42
2023-05-16T13:34:04.549Z,639.42
2023-05-16T13:36:41.543Z,602.10
2023-05-16T13:39:18.435Z,594.35
2023-05-16T13:41:46.745Z,579.03
2023-05-16T13:44:14.643Z,648.33
2023-05-16T13:46:41.382Z,574.42
2023-05-16T13:49:08.545Z,635.15
2023-05-16T13:51:35.252Z,576.25
2023-05-16T13:54:01.831Z,625.35
2023-05-16T13:56:28.691Z,341.70
2023-05-16T13:59:02.464Z,450.42
2023-05-16T14:01:32.951Z,349.27
2023-05-16T14:04:00.333Z,416.55
2023-05-16T14:06:27.178Z,333.38
2023-05-16T14:08:54.321Z,317.75
2023-05-16T14:11:27.653Z,286.10
2023-05-16T14:13:56.318Z,268.77
2023-05-16T14:16:23.236Z,333.13
2023-05-16T14:18:50.188Z,323.98
2023-05-16T14:21:17.213Z,358.77
2023-05-16T14:23:44.292Z,377.35
2023-05-16T14:26:11.420Z,361.38
2023-05-16T14:28:38.468Z,407.58
2023-05-16T14:31:25.728Z,449.98
2023-05-16T14:34:15.417Z,525.58
2023-05-16T14:36:42.202Z,418.45
2023-05-16T14:39:09.542Z,444.58
2023-05-16T14:41:37.363Z,371.23
2023-05-16T14:44:04.379Z,477.77
2023-05-16T14:46:31.215Z,357.42
2023-05-16T14:48:57.932Z,435.63
2023-05-16T14:51:24.565Z,375.92
2023-05-16T14:53:51.282Z,358.67
2023-05-16T14:56:17.842Z,515.30
2023-05-16T14:58:44.785Z,343.60
2023-05-16T15:01:11.461Z,370.08
2023-05-16T15:06:10.079Z,392.92
2023-05-16T15:08:38.361Z,412.63
2023-05-16T15:11:05.065Z,342.95
2023-05-16T15:13:31.618Z,618.25
2023-05-16T15:15:58.291Z,360.25
2023-05-16T15:18:25.008Z,416.05
2023-05-16T15:20:53.085Z,387.13
2023-05-16T15:23:19.920Z,534.53
2023-05-16T15:25:46.689Z,567.63
2023-05-16T15:28:13.354Z,640.58
2023-05-16T15:30:40.017Z,613.63
2023-05-16T15:33:06.582Z,485.65
2023-05-16T15:35:33.268Z,522.50
2023-05-16T15:37:59.896Z,582.97
2023-05-16T15:40:32.399Z,486.85
2023-05-16T15:42:59.409Z,428.35
2023-05-16T15:45:27.012Z,611.45
2023-05-16T15:47:53.815Z,538.75
2023-05-16T15:50:20.924Z,522.70
2023-05-16T15:52:47.568Z,431.27
2023-05-16T15:55:14.320Z,476.45
2023-05-16T15:57:42.155Z,551.47
2023-05-16T16:00:09.678Z,497.98
2023-05-16T16:02:40.155Z,463.53
2023-05-16T16:05:07.520Z,459.67
2023-05-16T16:07:34.205Z,550.25
2023-05-16T16:10:01.318Z,482.58
2023-05-16T16:12:31.298Z,452.42
2023-05-16T16:14:58.130Z,536.47
2023-05-16T16:17:24.771Z,530.10
2023-05-16T16:19:51.734Z,476.17
2023-05-16T16:22:19.101Z,459.25
2023-05-16T16:24:47.047Z,547.42
2023-05-16T16:27:13.802Z,451.48
2023-05-16T16:29:40.717Z,436.00
2023-05-16T16:32:07.772Z,432.77
2023-05-16T16:34:34.598Z,363.52
2023-05-16T16:37:01.233Z,355.45
2023-05-16T16:39:29.456Z,409.85
2023-05-16T16:41:57.743Z,357.95
2023-05-16T16:44:24.331Z,409.15
2023-05-16T16:46:51.194Z,370.00
2023-05-16T16:49:19.306Z,586.10
2023-05-16T16:51:47.167Z,376.05
2023-05-16T16:54:13.807Z,452.60
2023-05-16T16:56:40.969Z,637.25
2023-05-16T16:59:07.916Z,487.35
2023-05-16T17:01:35.119Z,483.42
2023-05-16T17:04:02.068Z,596.47
2023-05-16T17:06:29.841Z,537.85
2023-05-16T17:08:57.222Z,453.58
2023-05-16T17:11:23.832Z,464.52
2023-05-16T17:13:50.431Z,500.65
2023-05-16T17:16:17.021Z,434.17
2023-05-16T17:18:43.922Z,475.85
2023-05-16T17:21:12.859Z,438.27
2023-05-16T17:23:41.203Z,600.90
2023-05-16T17:26:09.959Z,470.38
2023-05-16T17:28:36.839Z,433.70
2023-05-16T17:31:04.011Z,568.17
2023-05-16T17:33:31.169Z,442.80
2023-05-16T17:35:57.817Z,538.03
2023-05-16T17:38:24.485Z,458.70
2023-05-16T17:40:51.057Z,454.13
2023-05-16T17:43:17.662Z,465.35
2023-05-16T17:45:44.356Z,442.45
2023-05-16T17:48:10.956Z,592.25
2023-05-16T17:50:37.619Z,461.58
2023-05-16T17:53:04.752Z,601.97
2023-05-16T17:55:31.348Z,410.00
2023-05-16T17:57:58.117Z,551.22
2023-05-16T18:00:25.008Z,434.63
2023-05-16T18:02:52.209Z,453.13
2023-05-16T18:05:18.950Z,578.22
2023-05-16T18:07:45.795Z,542.38
2023-05-16T18:10:13.432Z,550.45
2023-05-16T18:12:41.607Z,432.15
2023-05-16T18:15:10.507Z,519.92
2023-05-16T18:17:37.931Z,488.58
2023-05-16T18:20:09.434Z,539.67
2023-05-16T18:22:37.445Z,404.02
2023-05-16T18:25:05.705Z,485.73
2023-05-16T18:27:33.174Z,493.58
2023-05-16T18:30:02.344Z,435.77
2023-05-16T18:32:29.360Z,395.85
2023-05-16T18:34:56.263Z,661.67
2023-05-16T18:37:23.025Z,436.70
2023-05-16T18:39:50.174Z,399.10
2023-05-16T18:42:19.468Z,302.50
2023-05-16T18:44:46.170Z,304.98
2023-05-16T18:47:12.961Z,295.55
2023-05-16T18:49:39.675Z,286.52
2023-05-16T18:52:08.078Z,312.98
2023-05-16T18:54:35.659Z,284.13
2023-05-16T18:57:03.528Z,379.13
2023-05-16T18:59:30.281Z,272.45
2023-05-16T19:01:56.954Z,332.50
2023-05-16T19:04:23.746Z,362.10
2023-05-16T19:06:50.643Z,301.10
2023-05-16T19:09:17.184Z,291.90
2023-05-16T19:11:44.711Z,375.38
2023-05-16T19:14:11.524Z,257.13
2023-05-16T19:16:38.094Z,310.83
2023-05-16T19:19:05.689Z,265.08
2023-05-16T19:21:32.538Z,539.10
2023-05-16T19:23:59.820Z,328.00
2023-05-16T19:26:26.621Z,289.80
2023-05-16T19:28:53.277Z,347.58
2023-05-16T19:31:19.933Z,275.05
2023-05-16T19:33:47.040Z,339.45
2023-05-16T19:36:16.786Z,268.17
2023-05-16T19:38:43.405Z,300.88
2023-05-16T19:41:10.009Z,275.25
2023-05-16T19:43:36.641Z,302.83
2023-05-16T19:46:03.217Z,279.52
2023-05-16T19:48:30.062Z,356.15
2023-05-16T19:50:56.840Z,435.88
2023-05-16T19:53:23.449Z,251.10
2023-05-16T19:55:50.098Z,329.15
2023-05-16T19:58:16.892Z,419.80
2023-05-16T20:00:43.574Z,323.88
2023-05-16T20:03:10.363Z,312.35
2023-05-16T20:05:37.012Z,299.73
2023-05-16T20:08:04.068Z,445.52
2023-05-16T20:10:30.717Z,291.98
2023-05-16T20:12:57.490Z,328.70
2023-05-16T20:15:24.535Z,440.63
2023-05-16T20:17:51.507Z,397.70
2023-05-16T20:20:18.347Z,593.13
2023-05-16T20:22:45.198Z,344.90
2023-05-16T20:25:12.160Z,440.10
2023-05-16T20:27:39.186Z,401.25
2023-05-16T20:30:06.958Z,358.92
2023-05-16T20:32:33.969Z,381.98
2023-05-16T20:35:01.449Z,319.42
2023-05-16T20:37:28.119Z,556.60
2023-05-16T20:39:54.806Z,328.17
2023-05-16T20:42:21.937Z,336.50
2023-05-16T20:44:48.718Z,361.95
2023-05-16T20:47:16.873Z,320.65
2023-05-16T20:49:43.896Z,476.80
2023-05-16T20:52:10.877Z,418.73
2023-05-16T20:54:38.009Z,510.60
2023-05-16T20:57:05.075Z,397.92
2023-05-16T20:59:32.309Z,393.45
2023-05-16T21:01:59.080Z,449.17
2023-05-16T21:04:25.846Z,400.52
2023-05-16T21:06:52.437Z,390.13
2023-05-16T21:09:19.207Z,370.23
2023-05-16T21:11:45.831Z,397.92
2023-05-16T21:14:12.517Z,350.67
2023-05-16T21:16:39.350Z,370.88
2023-05-16T21:19:06.829Z,385.38
2023-05-16T21:21:33.918Z,355.55
2023-05-16T21:24:00.785Z,518.20
2023-05-16T21:26:27.429Z,363.48
2023-05-16T21:28:55.589Z,386.15
2023-05-16T21:31:23.286Z,361.52
2023-05-16T21:33:55.239Z,290.08
2023-05-16T21:36:22.590Z,440.90
2023-05-16T21:38:49.230Z,436.20
2023-05-16T21:41:17.966Z,541.42
2023-05-16T21:43:44.725Z,361.90
2023-05-16T21:46:11.321Z,327.13
2023-05-16T21:48:38.401Z,374.17
2023-05-16T21:51:05.219Z,302.20
2023-05-16T21:53:31.829Z,249.63
2023-05-16T21:55:59.589Z,346.13
2023-05-16T21:58:26.362Z,467.15
2023-05-16T22:00:52.926Z,378.55
2023-05-16T22:03:21.202Z,348.23
2023-05-16T22:05:48.166Z,371.90
2023-05-16T22:08:15.160Z,511.90
2023-05-16T22:10:42.065Z,407.20
2023-05-16T22:13:08.693Z,447.35
2023-05-16T22:15:35.400Z,587.28
2023-05-16T22:18:02.210Z,354.55
2023-05-16T22:20:29.680Z,411.67
2023-05-16T22:22:56.602Z,361.15
2023-05-16T22:25:23.542Z,407.70
2023-05-16T22:27:50.357Z,380.25
2023-05-16T22:30:17.096Z,399.73
2023-05-16T22:32:45.596Z,352.25
2023-05-16T22:35:13.688Z,315.42
2023-05-16T22:37:40.297Z,380.90
2023-05-16T22:40:08.124Z,354.85
2023-05-16T22:42:34.765Z,392.45
2023-05-16T22:45:01.832Z,311.65
2023-05-16T22:47:28.870Z,540.40
2023-05-16T22:49:55.771Z,294.73
2023-05-16T22:52:22.378Z,391.27
2023-05-16T22:54:49.042Z,399.35
2023-05-16T22:57:17.116Z,466.13
2023-05-16T22:59:43.764Z,350.50
2023-05-16T23:02:10.487Z,302.30
2023-05-16T23:04:37.147Z,321.30
2023-05-16T23:07:03.886Z,295.15
2023-05-16T23:09:30.421Z,296.10
2023-05-16T23:11:57.032Z,311.35
2023-05-16T23:14:23.667Z,289.33
2023-05-16T23:16:50.225Z,291.92
2023-05-16T23:19:17.076Z,255.88
2023-05-16T23:21:44.461Z,283.52
2023-05-16T23:24:11.145Z,158.32
2023-05-16T23:26:37.758Z,270.90
2023-05-16T23:29:04.392Z,252.30
2023-05-16T23:31:32.925Z,303.60
2023-05-16T23:33:59.547Z,347.45
2023-05-16T23:36:26.262Z,311.23
2023-05-16T23:38:52.818Z,312.40
2023-05-16T23:41:19.371Z,252.85
2023-05-16T23:43:46.008Z,428.42
2023-05-16T23:46:12.560Z,265.92
2023-05-16T23:48:39.932Z,313.15
2023-05-16T23:51:07.614Z,294.00
2023-05-16T23:53:35.135Z,302.52
2023-05-16T23:56:03.125Z,287.95
2023-05-16T23:58:30.165Z,282.80
